Time,TemperatureF,DewpointF,PressureIn,WindDirection,WindDirectionDegrees,WindSpeedMPH,WindSpeedGustMPH,Humidity,HourlyPrecipIn,Conditions,Clouds,dailyrainin,SoftwareType,DateUTC
2013-10-21 00:14:00,37.0,33.0,29.87,South,178,0.0,-999.0,86,-99.99,,,-99.99,,2013-10-21 04:14:00,
2013-10-21 00:24:00,38.0,34.0,29.86,South,178,0.0,-999.0,86,-99.99,,,-99.99,,2013-10-21 04:24:00,
2013-10-21 00:44:00,38.0,34.0,29.88,South,178,0.0,-999.0,86,-99.99,,,-99.99,,2013-10-21 04:44:00,
2013-10-21 00:53:00,36.0,33.0,29.86,South,178,0.0,-999.0,89,-99.99,,,-99.99,,2013-10-21 04:53:00,
2013-10-21 01:13:00,35.0,32.0,29.88,South,178,0.0,-999.0,89,-99.99,,,-99.99,,2013-10-21 05:13:00,
2013-10-21 01:23:00,36.0,34.0,29.87,South,178,0.0,-999.0,91,-99.99,,,-99.99,,2013-10-21 05:23:00,
2013-10-21 01:43:00,35.0,32.0,29.88,South,178,0.0,-999.0,90,-99.99,,,-99.99,,2013-10-21 05:43:00,
2013-10-21 01:52:00,35.0,33.0,29.89,South,178,0.0,-999.0,91,-99.99,,,-99.99,,2013-10-21 05:52:00,
2013-10-21 02:02:00,35.0,33.0,29.89,South,178,0.0,-999.0,91,-99.99,,,-99.99,,2013-10-21 06:02:00,
2013-10-21 02:12:00,35.0,33.0,29.89,South,178,0.0,-999.0,91,-99.99,,,-99.99,,2013-10-21 06:12:00,
2013-10-21 02:22:00,35.0,33.0,29.88,South,178,0.0,-999.0,93,-99.99,,,-99.99,,2013-10-21 06:22:00,
2013-10-21 02:42:00,34.0,32.0,29.90,South,178,0.0,-999.0,92,-99.99,,,-99.99,,2013-10-21 06:42:00,
2013-10-21 02:52:00,35.0,33.0,29.88,South,178,0.0,-999.0,94,-99.99,,,-99.99,,2013-10-21 06:52:00,
2013-10-21 03:12:00,34.0,32.0,29.90,South,178,0.0,-999.0,93,-99.99,,,-99.99,,2013-10-21 07:12:00,
2013-10-21 03:22:00,34.0,32.0,29.89,South,178,0.0,-999.0,93,-99.99,,,-99.99,,2013-10-21 07:22:00,
2013-10-21 03:43:00,33.0,31.0,29.91,South,178,0.0,-999.0,94,-99.99,,,-99.99,,2013-10-21 07:43:00,
2013-10-21 03:52:00,33.0,32.0,29.90,South,178,0.0,-999.0,95,-99.99,,,-99.99,,2013-10-21 07:52:00,
2013-10-21 04:12:00,32.0,31.0,29.92,South,178,0.0,-999.0,95,-99.99,,,-99.99,,2013-10-21 08:12:00,
2013-10-21 04:22:00,33.0,32.0,29.91,South,178,0.0,-999.0,96,-99.99,,,-99.99,,2013-10-21 08:22:00,
2013-10-21 04:42:00,32.0,31.0,29.93,South,178,0.0,-999.0,96,-99.99,,,-99.99,,2013-10-21 08:42:00,
2013-10-21 04:52:00,32.0,31.0,29.91,South,178,0.0,-999.0,95,-99.99,,,-99.99,,2013-10-21 08:52:00,
2013-10-21 05:11:00,32.0,31.0,29.93,South,178,0.0,-999.0,95,-99.99,,,-99.99,,2013-10-21 09:11:00,
2013-10-21 05:22:00,32.0,31.0,29.92,South,178,0.0,-999.0,96,-99.99,,,-99.99,,2013-10-21 09:22:00,
2013-10-21 05:43:00,32.0,31.0,29.94,South,178,0.0,-999.0,96,-99.99,,,-99.99,,2013-10-21 09:43:00,
2013-10-21 05:54:00,32.0,31.0,29.93,South,178,0.0,-999.0,96,-99.99,,,-99.99,,2013-10-21 09:54:00,
2013-10-21 06:13:00,31.0,30.0,29.95,South,178,0.0,-999.0,96,-99.99,,,-99.99,,2013-10-21 10:13:00,
2013-10-21 06:23:00,32.0,31.0,29.93,South,178,0.0,-999.0,97,-99.99,,,-99.99,,2013-10-21 10:23:00,
2013-10-21 06:43:00,32.0,31.0,29.96,South,178,0.0,-999.0,97,-99.99,,,-99.99,,2013-10-21 10:43:00,
2013-10-21 06:52:00,32.0,31.0,29.93,South,178,0.0,-999.0,96,-99.99,,,-99.99,,2013-10-21 10:52:00,
2013-10-21 07:12:00,31.0,30.0,29.96,South,178,0.0,-999.0,97,-99.99,,,-99.99,,2013-10-21 11:12:00,
2013-10-21 07:22:00,31.0,30.0,29.96,South,178,0.0,-999.0,96,-99.99,,,-99.99,,2013-10-21 11:22:00,
2013-10-21 07:33:00,31.0,30.0,29.96,South,178,0.0,-999.0,96,-99.99,,,-99.99,,2013-10-21 11:33:00,
2013-10-21 07:42:00,31.0,30.0,29.96,South,178,0.0,-999.0,96,-99.99,,,-99.99,,2013-10-21 11:42:00,
2013-10-21 07:52:00,31.0,30.0,29.94,South,178,0.0,-999.0,97,-99.99,,,-99.99,,2013-10-21 11:52:00,
2013-10-21 08:12:00,31.0,30.0,29.97,South,178,0.0,-999.0,97,-99.99,,,-99.99,,2013-10-21 12:12:00,
2013-10-21 08:22:00,32.0,31.0,29.96,South,178,0.0,-999.0,97,-99.99,,,-99.99,,2013-10-21 12:22:00,
2013-10-21 08:42:00,32.0,31.0,29.98,South,178,0.0,-999.0,97,-99.99,,,-99.99,,2013-10-21 12:42:00,
2013-10-21 08:52:00,35.0,34.0,29.96,South,178,0.0,-999.0,98,-99.99,,,-99.99,,2013-10-21 12:52:00,
2013-10-21 09:11:00,34.0,34.0,29.98,South,178,0.0,-999.0,98,-99.99,,,-99.99,,2013-10-21 13:11:00,
2013-10-21 09:22:00,36.0,35.0,29.96,South,176,0.0,-999.0,98,-99.99,,,-99.99,,2013-10-21 13:22:00,
2013-10-21 09:42:00,37.0,36.0,29.98,South,176,0.0,-999.0,98,-99.99,,,-99.99,,2013-10-21 13:42:00,
2013-10-21 09:52:00,40.0,39.0,29.96,South,176,0.0,-999.0,97,-99.99,,,-99.99,,2013-10-21 13:52:00,
2013-10-21 10:12:00,41.0,39.0,29.98,ESE,109,0.0,-999.0,94,-99.99,,,-99.99,,2013-10-21 14:12:00,
2013-10-21 10:22:00,42.0,40.0,29.95,ESE,109,0.0,-999.0,92,-99.99,,,-99.99,,2013-10-21 14:22:00,
2013-10-21 10:42:00,42.0,40.0,29.98,ESE,109,0.0,-999.0,92,-99.99,,,-99.99,,2013-10-21 14:42:00,
2013-10-21 10:52:00,47.0,42.0,29.95,WNW,292,0.0,-999.0,82,-99.99,,,-99.99,,2013-10-21 14:52:00,
2013-10-21 11:12:00,47.0,42.0,29.97,WNW,282,0.0,-999.0,82,-99.99,,,-99.99,,2013-10-21 15:12:00,
2013-10-21 11:22:00,50.0,42.0,29.93,NNW,345,0.0,-999.0,74,-99.99,,,-99.99,,2013-10-21 15:22:00,
2013-10-21 11:43:00,50.0,42.0,29.96,ENE,72,1.0,-999.0,73,-99.99,,,-99.99,,2013-10-21 15:43:00,
2013-10-21 11:54:00,51.0,42.0,29.93,ENE,73,1.0,-999.0,72,-99.99,,,-99.99,,2013-10-21 15:54:00,
2013-10-21 12:13:00,51.0,41.0,29.95,NE,41,0.0,-999.0,69,-99.99,,,-99.99,,2013-10-21 16:13:00,
2013-10-21 12:23:00,53.0,42.0,29.92,ENE,60,1.0,-999.0,67,-99.99,,,-99.99,,2013-10-21 16:23:00,
2013-10-21 12:43:00,54.0,42.0,29.94,NNW,348,1.0,-999.0,64,-99.99,,,-99.99,,2013-10-21 16:43:00,
2013-10-21 12:54:00,55.0,43.0,29.91,East,100,2.0,-999.0,64,-99.99,,,-99.99,,2013-10-21 16:54:00,
2013-10-21 13:12:00,55.0,43.0,29.93,NNE,18,1.0,-999.0,65,-99.99,,,-99.99,,2013-10-21 17:12:00,
2013-10-21 13:22:00,56.0,43.0,29.90,ENE,67,2.0,-999.0,61,-99.99,,,-99.99,,2013-10-21 17:22:00,
2013-10-21 13:43:00,56.0,43.0,29.92,ENE,64,1.0,-999.0,61,-99.99,,,-99.99,,2013-10-21 17:43:00,
2013-10-21 13:53:00,57.0,42.0,29.88,NNE,16,2.0,-999.0,58,-99.99,,,-99.99,,2013-10-21 17:53:00,
2013-10-21 14:12:00,57.0,42.0,29.91,North,6,2.0,-999.0,58,-99.99,,,-99.99,,2013-10-21 18:12:00,
2013-10-21 14:22:00,59.0,44.0,29.87,NNW,328,2.0,-999.0,58,-99.99,,,-99.99,,2013-10-21 18:22:00,
2013-10-21 14:42:00,59.0,43.0,29.89,NW,324,3.0,-999.0,55,-99.99,,,-99.99,,2013-10-21 18:42:00,
2013-10-21 14:52:00,60.0,44.0,29.86,East,79,2.0,-999.0,55,-99.99,,,-99.99,,2013-10-21 18:52:00,
2013-10-21 15:11:00,59.0,44.0,29.88,ENE,67,2.0,-999.0,57,-99.99,,,-99.99,,2013-10-21 19:11:00,
2013-10-21 15:22:00,60.0,44.0,29.86,ENE,72,2.0,-999.0,55,-99.99,,,-99.99,,2013-10-21 19:22:00,
2013-10-21 15:42:00,59.0,43.0,29.88,ENE,64,2.0,-999.0,55,-99.99,,,-99.99,,2013-10-21 19:42:00,
2013-10-21 15:52:00,61.0,44.0,29.86,NNE,31,2.0,-999.0,54,-99.99,,,-99.99,,2013-10-21 19:52:00,
2013-10-21 16:12:00,60.0,42.0,29.88,NNW,339,2.0,-999.0,52,-99.99,,,-99.99,,2013-10-21 20:12:00,
2013-10-21 16:22:00,61.0,44.0,29.85,NE,56,1.0,-999.0,53,-99.99,,,-99.99,,2013-10-21 20:22:00,
2013-10-21 16:43:00,61.0,44.0,29.86,ENE,70,1.0,-999.0,53,-99.99,,,-99.99,,2013-10-21 20:43:00,
2013-10-21 16:53:00,60.0,44.0,29.84,ENE,70,1.0,-999.0,55,-99.99,,,-99.99,,2013-10-21 20:53:00,
2013-10-21 17:12:00,59.0,43.0,29.86,NE,43,1.0,-999.0,55,-99.99,,,-99.99,,2013-10-21 21:12:00,
2013-10-21 17:22:00,59.0,43.0,29.84,ENE,60,0.0,-999.0,56,-99.99,,,-99.99,,2013-10-21 21:22:00,
2013-10-21 17:44:00,58.0,43.0,29.87,ENE,60,0.0,-999.0,57,-99.99,,,-99.99,,2013-10-21 21:44:00,
2013-10-21 17:54:00,57.0,42.0,29.87,East,84,0.0,-999.0,58,-99.99,,,-99.99,,2013-10-21 21:54:00,
2013-10-21 18:04:00,57.0,42.0,29.87,East,84,0.0,-999.0,58,-99.99,,,-99.99,,2013-10-21 22:04:00,
2013-10-21 18:13:00,57.0,42.0,29.87,East,84,0.0,-999.0,58,-99.99,,,-99.99,,2013-10-21 22:13:00,
2013-10-21 18:24:00,56.0,43.0,29.85,ESE,103,0.0,-999.0,62,-99.99,,,-99.99,,2013-10-21 22:24:00,
2013-10-21 18:44:00,55.0,43.0,29.88,ESE,103,0.0,-999.0,63,-99.99,,,-99.99,,2013-10-21 22:44:00,
2013-10-21 18:54:00,54.0,43.0,29.85,ESE,108,0.0,-999.0,65,-99.99,,,-99.99,,2013-10-21 22:54:00,
2013-10-21 19:13:00,54.0,43.0,29.88,ESE,108,0.0,-999.0,66,-99.99,,,-99.99,,2013-10-21 23:13:00,
2013-10-21 19:22:00,54.0,44.0,29.85,ESE,115,0.0,-999.0,68,-99.99,,,-99.99,,2013-10-21 23:22:00,
2013-10-21 19:42:00,53.0,42.0,29.87,ESE,115,0.0,-999.0,66,-99.99,,,-99.99,,2013-10-21 23:42:00,
2013-10-21 19:53:00,53.0,42.0,29.85,ESE,115,0.0,-999.0,66,-99.99,,,-99.99,,2013-10-21 23:53:00,
2013-10-21 20:12:00,53.0,43.0,29.87,ESE,115,0.0,-999.0,70,-99.99,,,-99.99,,2013-10-22 00:12:00,
2013-10-21 20:22:00,52.0,43.0,29.84,ESE,115,0.0,-999.0,72,-99.99,,,-99.99,,2013-10-22 00:22:00,
2013-10-21 20:42:00,51.0,42.0,29.86,ESE,115,0.0,-999.0,71,-99.99,,,-99.99,,2013-10-22 00:42:00,
2013-10-21 20:53:00,50.0,42.0,29.85,ESE,115,0.0,-999.0,75,-99.99,,,-99.99,,2013-10-22 00:53:00,
2013-10-21 21:03:00,50.0,42.0,29.85,ESE,115,0.0,-999.0,75,-99.99,,,-99.99,,2013-10-22 01:03:00,
2013-10-21 21:12:00,50.0,42.0,29.85,ESE,115,0.0,-999.0,75,-99.99,,,-99.99,,2013-10-22 01:12:00,
2013-10-21 21:22:00,51.0,43.0,29.83,ESE,115,0.0,-999.0,73,-99.99,,,-99.99,,2013-10-22 01:22:00,
2013-10-21 21:42:00,51.0,43.0,29.85,ESE,116,1.0,-999.0,73,-99.99,,,-99.99,,2013-10-22 01:42:00,
2013-10-21 21:53:00,52.0,43.0,29.82,ESE,118,0.0,-999.0,71,-99.99,,,-99.99,,2013-10-22 01:53:00,
2013-10-21 22:12:00,52.0,43.0,29.84,ESE,118,0.0,-999.0,70,-99.99,,,-99.99,,2013-10-22 02:12:00,
2013-10-21 22:22:00,53.0,42.0,29.82,NE,39,0.0,-999.0,67,-99.99,,,-99.99,,2013-10-22 02:22:00,
2013-10-21 22:43:00,53.0,43.0,29.84,NE,39,0.0,-999.0,68,-99.99,,,-99.99,,2013-10-22 02:43:00,
2013-10-21 22:52:00,53.0,42.0,29.82,NNW,328,0.0,-999.0,66,-99.99,,,-99.99,,2013-10-22 02:52:00,
2013-10-21 23:12:00,53.0,41.0,29.83,WNW,302,0.0,-999.0,64,-99.99,,,-99.99,,2013-10-22 03:12:00,